Time;durP1;ratioP1;P1;durP2;ratioP2;P2;SDS_P1;SDS_P2;PMS_P1;PMS_P2;Temp;Humidity;BMP_temperature;BMP_pressure;BME280_temperature;BME280_humidity;BME280_pressure;Samples;Min_cycle;Max_cycle;Signal;HPM_P1;HPM_P2
2022/12/28 00:00:19;;;;;;;5.55;0.65;;;5.40;99.90;;;;;;6301587;22;20015;-82
2022/12/28 00:02:44;;;;;;;3.55;0.68;;;5.40;99.90;;;;;;6300682;22;20075;-81
2022/12/28 00:05:10;;;;;;;4.07;0.68;;;5.40;99.90;;;;;;6301587;22;20007;-82
2022/12/28 00:07:36;;;;;;;2.00;0.70;;;5.40;99.90;;;;;;6301972;22;20041;-82
2022/12/28 00:10:01;;;;;;;8.23;0.68;;;5.40;99.90;;;;;;6275196;22;20035;-82
2022/12/28 00:12:28;;;;;;;6.38;0.82;;;5.40;99.90;;;;;;6275483;22;20339;-82
2022/12/28 00:14:54;;;;;;;2.58;0.55;;;5.40;99.90;;;;;;6274124;22;20083;-82
2022/12/28 00:17:19;;;;;;;2.45;0.50;;;5.40;99.90;;;;;;6250664;22;20023;-82
2022/12/28 00:19:45;;;;;;;5.30;0.50;;;5.40;99.90;;;;;;6301579;22;20010;-82
2022/12/28 00:22:11;;;;;;;3.38;0.70;;;5.50;99.90;;;;;;6275904;22;19999;-82
2022/12/28 00:24:36;;;;;;;3.97;0.80;;;5.40;99.90;;;;;;6275114;22;20033;-81
2022/12/28 00:27:02;;;;;;;3.15;0.75;;;5.40;99.90;;;;;;6275425;22;20072;-82
2022/12/28 00:29:28;;;;;;;4.25;0.95;;;5.50;99.90;;;;;;6275173;22;20014;-80
2022/12/28 00:31:53;;;;;;;8.27;0.93;;;5.50;99.90;;;;;;6275375;22;20030;-82
2022/12/28 00:34:22;;;;;;;2.00;0.50;;;5.50;99.90;;;;;;6301633;22;20007;-82
2022/12/28 00:36:52;;;;;;;2.45;0.60;;;5.40;99.90;;;;;;6275119;22;20094;-81
2022/12/28 00:39:18;;;;;;;2.72;0.40;;;5.40;99.90;;;;;;6275786;22;20060;-82
2022/12/28 00:41:44;;;;;;;3.47;0.50;;;5.50;99.90;;;;;;6275477;22;20054;-82
2022/12/28 00:44:10;;;;;;;2.67;0.60;;;5.50;99.90;;;;;;6274945;22;20436;-81
2022/12/28 00:46:36;;;;;;;4.38;0.60;;;5.50;99.90;;;;;;6301387;22;20015;-82
2022/12/28 00:49:01;;;;;;;3.03;0.70;;;5.50;99.90;;;;;;6302821;22;20006;-81
2022/12/28 00:51:27;;;;;;;3.00;0.60;;;5.50;99.90;;;;;;6301063;22;20086;-81
2022/12/28 00:53:53;;;;;;;1.55;0.50;;;5.50;99.90;;;;;;6301198;22;20015;-82
2022/12/28 00:56:20;;;;;;;3.75;0.70;;;5.50;99.90;;;;;;6250094;22;20021;-81
2022/12/28 00:58:47;;;;;;;2.85;0.60;;;5.50;99.90;;;;;;6249678;22;20007;-82
2022/12/28 01:01:15;;;;;;;2.78;0.70;;;5.60;99.90;;;;;;6275312;22;20447;-82
2022/12/28 01:03:41;;;;;;;1.80;0.70;;;5.50;99.90;;;;;;6250150;22;20066;-82
2022/12/28 01:06:09;;;;;;;4.57;0.73;;;5.60;99.90;;;;;;6249850;22;20440;-81
2022/12/28 01:08:36;;;;;;;3.40;0.88;;;5.60;99.90;;;;;;6275339;22;20416;-82
2022/12/28 01:11:10;;;;;;;3.95;0.77;;;5.60;99.90;;;;;;6275225;22;20003;-81
2022/12/28 01:13:37;;;;;;;3.60;0.60;;;5.60;99.90;;;;;;6302120;22;20014;-82
2022/12/28 01:16:11;;;;;;;3.80;0.60;;;5.70;99.90;;;;;;6249700;22;20018;-82
2022/12/28 01:18:37;;;;;;;1.63;0.50;;;5.70;99.90;;;;;;6302905;22;20012;-82
2022/12/28 01:21:15;;;;;;;3.13;0.80;;;5.70;99.90;;;;;;6275342;22;20022;-82
2022/12/28 01:23:42;;;;;;;2.60;0.60;;;5.80;99.90;;;;;;6276861;22;20014;-82
2022/12/28 01:26:08;;;;;;;2.65;0.80;;;5.80;99.90;;;;;;6251957;22;20064;-82
2022/12/28 01:28:34;;;;;;;5.50;0.90;;;5.80;99.90;;;;;;6251549;22;20482;-82
2022/12/28 01:31:07;;;;;;;3.72;0.60;;;5.80;99.90;;;;;;6251952;22;20009;-82
2022/12/28 01:33:33;;;;;;;4.38;0.70;;;5.80;99.90;;;;;;6304393;22;20438;-81
2022/12/28 01:36:07;;;;;;;2.40;0.90;;;5.90;99.90;;;;;;6276261;22;20086;-82
2022/12/28 01:38:33;;;;;;;5.15;0.93;;;5.90;99.90;;;;;;6277245;22;20034;-82
2022/12/28 01:41:01;;;;;;;4.82;0.90;;;6.00;99.90;;;;;;6276735;22;20012;-82
2022/12/28 01:43:53;;;;;;;2.13;0.68;;;6.00;99.90;;;;;;6251195;22;20085;-82
2022/12/28 01:46:35;;;;;;;2.63;0.77;;;6.00;99.90;;;;;;6232908;22;20098;-82
2022/12/28 01:49:20;;;;;;;;;;;6.10;99.90;;;;;;6303286;22;20079;-81
2022/12/28 01:51:59;;;;;;;5.95;1.27;;;6.10;99.90;;;;;;6304186;22;20329;-81
2022/12/28 01:54:29;;;;;;;2.30;0.98;;;6.20;99.90;;;;;;6277023;22;20061;-81
2022/12/28 01:56:55;;;;;;;;;;;6.20;99.90;;;;;;6250973;22;20072;-82
2022/12/28 01:59:27;;;;;;;3.13;1.27;;;6.20;99.90;;;;;;6277012;22;19914;-81
2022/12/28 02:01:53;;;;;;;3.60;0.93;;;6.20;99.90;;;;;;6276398;22;20034;-82
2022/12/28 02:04:18;;;;;;;3.85;0.90;;;6.20;99.90;;;;;;6277111;22;20053;-82
2022/12/28 02:06:45;;;;;;;1.92;0.65;;;6.20;99.90;;;;;;6302160;22;20022;-81
2022/12/28 02:09:20;;;;;;;3.17;0.80;;;6.20;99.90;;;;;;6276774;22;20003;-81
2022/12/28 02:11:47;;;;;;;3.42;0.90;;;6.20;99.90;;;;;;6250750;22;20039;-82
2022/12/28 02:14:14;;;;;;;3.58;1.00;;;6.30;99.90;;;;;;6276747;22;20011;-82
2022/12/28 02:16:42;;;;;;;3.28;0.60;;;6.30;99.90;;;;;;6250695;22;20431;-82
2022/12/28 02:19:12;;;;;;;2.40;0.88;;;6.40;99.90;;;;;;6251756;22;20007;-82
2022/12/28 02:21:47;;;;;;;4.28;1.10;;;6.40;99.90;;;;;;6277800;22;20082;-82
2022/12/28 02:24:39;;;;;;;3.70;1.65;;;6.40;99.90;;;;;;6303165;22;20007;-81
2022/12/28 02:27:53;;;;;;;6.82;1.52;;;6.40;99.90;;;;;;6251239;22;20015;-82
2022/12/28 02:30:19;;;;;;;5.65;1.73;;;6.50;99.90;;;;;;6251668;22;20007;-83
2022/12/28 02:33:26;;;;;;;3.75;1.50;;;6.50;99.90;;;;;;6251214;22;20010;-83
2022/12/28 02:36:03;;;;;;;3.92;1.33;;;6.50;99.90;;;;;;6276864;22;20007;-82
2022/12/28 02:38:52;;;;;;;2.78;1.00;;;6.50;99.90;;;;;;6276614;22;20086;-82
2022/12/28 02:41:22;;;;;;;5.30;1.33;;;6.50;99.90;;;;;;6287136;22;20011;-82
2022/12/28 02:43:48;;;;;;;3.95;0.95;;;6.50;99.90;;;;;;6303494;22;19999;-82
2022/12/28 02:52:44;;;;;;;4.07;1.48;;;6.60;99.90;;;;;;6277020;22;20086;-83
2022/12/28 02:58:30;;;;;;;2.78;0.68;;;6.50;99.90;;;;;;6304193;22;19999;-83
2022/12/28 03:01:26;;;;;;;3.42;0.63;;;6.60;99.90;;;;;;6276696;22;20335;-83
2022/12/28 03:03:58;;;;;;;3.92;0.90;;;6.60;99.90;;;;;;6276285;22;20007;-82
2022/12/28 03:09:49;;;;;;;3.63;1.00;;;6.60;99.90;;;;;;6303084;22;20018;-81
2022/12/28 03:12:46;;;;;;;5.45;1.55;;;6.50;99.90;;;;;;6250620;22;20499;-81
2022/12/28 03:15:28;;;;;;;3.85;1.30;;;6.60;99.90;;;;;;6267510;22;20007;-82
2022/12/28 03:32:24;;;;;;;3.70;2.00;;;6.50;99.90;;;;;;6276373;22;20011;-81
2022/12/28 03:34:49;;;;;;;5.30;2.30;;;6.60;99.90;;;;;;6275587;22;20477;-82
2022/12/28 03:37:30;;;;;;;4.35;2.20;;;6.60;99.90;;;;;;6276146;22;20018;-82
2022/12/28 03:40:14;;;;;;;4.38;1.58;;;6.50;99.90;;;;;;6275546;22;20014;-82
2022/12/28 03:45:50;;;;;;;3.60;1.57;;;6.50;99.90;;;;;;6275815;22;20015;-82
2022/12/28 03:48:19;;;;;;;5.15;2.08;;;6.60;99.90;;;;;;6251094;22;20015;-81
2022/12/28 03:50:48;;;;;;;2.00;0.98;;;6.60;99.90;;;;;;6250296;22;20034;-81
2022/12/28 03:53:18;;;;;;;4.32;1.50;;;6.60;99.90;;;;;;6249741;22;20043;-81
2022/12/28 03:55:44;;;;;;;2.70;1.13;;;6.60;99.90;;;;;;6276057;22;20072;-82
2022/12/28 03:58:11;;;;;;;4.40;1.05;;;6.60;99.90;;;;;;6303476;22;20082;-82
2022/12/28 04:00:37;;;;;;;3.92;1.40;;;6.60;99.90;;;;;;6276123;22;20027;-82
2022/12/28 04:03:02;;;;;;;3.97;1.30;;;6.60;99.90;;;;;;6274881;22;20015;-81
2022/12/28 04:05:28;;;;;;;2.40;1.20;;;6.60;99.90;;;;;;6301804;22;20069;-81
2022/12/28 04:07:54;;;;;;;2.80;0.88;;;6.60;99.90;;;;;;6274961;22;20080;-81
2022/12/28 04:10:20;;;;;;;3.58;1.80;;;6.70;99.90;;;;;;6275386;22;20378;-81
2022/12/28 04:12:46;;;;;;;2.45;0.88;;;6.70;99.90;;;;;;6275710;22;20003;-82
2022/12/28 04:15:25;;;;;;;3.13;1.00;;;6.60;99.90;;;;;;6253416;22;20052;-82
2022/12/28 04:17:51;;;;;;;4.03;1.13;;;6.70;99.90;;;;;;6275775;22;20459;-81
2022/12/28 04:20:16;;;;;;;2.28;0.98;;;6.70;99.90;;;;;;6275135;22;20011;-81
2022/12/28 04:22:43;;;;;;;2.85;1.20;;;6.80;99.90;;;;;;6249339;22;20283;-82
2022/12/28 04:25:09;;;;;;;2.28;1.00;;;6.80;99.90;;;;;;6275722;22;20332;-81
2022/12/28 04:27:35;;;;;;;3.13;1.42;;;6.80;99.90;;;;;;6275432;22;20007;-81
2022/12/28 04:30:08;;;;;;;2.03;0.90;;;6.80;99.90;;;;;;6251691;22;20007;-81
2022/12/28 04:32:34;;;;;;;1.88;0.90;;;6.80;99.90;;;;;;6274850;22;20340;-81
2022/12/28 04:35:02;;;;;;;3.78;1.00;;;6.80;99.90;;;;;;6275197;22;20015;-82
2022/12/28 04:37:30;;;;;;;4.60;1.52;;;6.90;99.90;;;;;;6249683;22;20011;-81
2022/12/28 04:39:56;;;;;;;2.75;1.17;;;6.90;99.90;;;;;;6249699;22;20003;-81
2022/12/28 04:42:22;;;;;;;2.65;1.35;;;6.90;99.90;;;;;;6275001;22;20061;-81
2022/12/28 04:44:48;;;;;;;3.00;1.70;;;6.90;99.90;;;;;;6302718;22;20007;-81
2022/12/28 04:47:13;;;;;;;2.90;1.25;;;6.90;99.90;;;;;;6275711;22;20221;-81
2022/12/28 04:49:39;;;;;;;2.53;1.17;;;6.90;99.90;;;;;;6302506;22;19995;-81
2022/12/28 04:52:05;;;;;;;3.08;1.40;;;7.00;99.90;;;;;;6302093;22;20099;-81
2022/12/28 04:54:30;;;;;;;3.38;1.42;;;6.90;99.90;;;;;;6248945;22;20012;-81
2022/12/28 04:56:56;;;;;;;3.20;1.63;;;6.90;99.90;;;;;;6302526;22;20015;-81
2022/12/28 04:59:21;;;;;;;3.40;1.50;;;7.00;99.90;;;;;;6252045;22;20007;-81
2022/12/28 05:01:47;;;;;;;3.45;1.27;;;7.00;99.90;;;;;;6277400;22;20014;-81
2022/12/28 05:04:13;;;;;;;3.40;2.00;;;7.00;99.90;;;;;;6277791;22;20014;-81
2022/12/28 05:06:38;;;;;;;4.15;2.10;;;7.10;99.90;;;;;;6277371;22;20090;-82
2022/12/28 05:09:04;;;;;;;3.25;1.70;;;7.00;99.90;;;;;;6277771;22;19999;-81
2022/12/28 05:11:30;;;;;;;3.42;1.55;;;7.10;99.90;;;;;;6277634;22;20092;-82
2022/12/28 05:13:56;;;;;;;3.95;1.85;;;7.10;99.90;;;;;;6303215;22;20003;-81
2022/12/28 05:16:24;;;;;;;4.35;1.63;;;7.10;99.90;;;;;;6251576;22;20008;-81
2022/12/28 05:18:50;;;;;;;2.63;1.60;;;7.10;99.90;;;;;;6304196;22;20003;-81
2022/12/28 05:21:22;;;;;;;3.22;1.63;;;7.10;99.90;;;;;;6302580;22;20086;-81
2022/12/28 05:23:48;;;;;;;4.28;1.77;;;7.20;99.90;;;;;;6277212;22;20007;-81
2022/12/28 05:26:17;;;;;;;4.15;1.80;;;7.10;99.90;;;;;;6277030;22;20050;-81
2022/12/28 05:28:43;;;;;;;3.33;1.88;;;7.20;99.90;;;;;;6251609;22;20007;-81
2022/12/28 05:31:12;;;;;;;3.47;1.30;;;7.10;99.90;;;;;;6251700;22;20153;-81
2022/12/28 05:33:38;;;;;;;5.13;1.98;;;7.10;99.90;;;;;;6277417;22;20420;-81
2022/12/28 05:36:04;;;;;;;5.30;2.50;;;7.10;99.90;;;;;;6276456;22;20007;-81
2022/12/28 05:38:31;;;;;;;5.28;1.85;;;7.20;99.90;;;;;;6277259;22;20025;-81
2022/12/28 05:41:04;;;;;;;3.25;1.88;;;7.20;99.90;;;;;;6276543;22;20015;-81
2022/12/28 05:43:30;;;;;;;3.33;1.83;;;7.20;99.90;;;;;;6304690;22;20332;-81
2022/12/28 05:46:04;;;;;;;4.45;2.13;;;7.20;99.90;;;;;;6301498;22;20015;-81
2022/12/28 05:48:33;;;;;;;4.45;2.40;;;7.20;99.90;;;;;;6304600;22;20489;-82
2022/12/28 05:51:05;;;;;;;3.88;1.80;;;7.30;99.90;;;;;;6251010;22;20435;-81
2022/12/28 05:53:31;;;;;;;3.20;2.20;;;7.30;99.90;;;;;;6276806;22;20011;-81
2022/12/28 05:56:04;;;;;;;3.33;2.40;;;7.30;99.90;;;;;;6251305;22;20007;-81
2022/12/28 05:58:30;;;;;;;3.97;2.10;;;7.30;99.90;;;;;;6277696;22;20011;-80
2022/12/28 06:01:24;;;;;;;5.35;2.00;;;7.30;99.90;;;;;;6304837;22;20034;-81
2022/12/28 06:04:01;;;;;;;2.88;1.95;;;7.40;99.90;;;;;;6272519;22;20510;-81
2022/12/28 06:06:28;;;;;;;3.58;1.63;;;7.40;99.90;;;;;;6250840;22;20019;-81
2022/12/28 06:08:54;;;;;;;3.35;1.67;;;7.40;99.90;;;;;;6303241;22;20017;-81
2022/12/28 06:11:22;;;;;;;3.45;1.65;;;7.40;99.90;;;;;;6251597;22;20007;-81
2022/12/28 06:13:49;;;;;;;3.00;1.65;;;7.40;99.90;;;;;;6276598;22;20428;-81
2022/12/28 06:16:25;;;;;;;2.55;1.58;;;7.40;99.90;;;;;;6251231;22;20007;-80
2022/12/28 06:18:51;;;;;;;2.30;1.38;;;7.40;99.90;;;;;;6250653;22;20014;-81
2022/12/28 06:21:38;;;;;;;2.55;1.20;;;7.40;99.90;;;;;;6249093;22;20011;-81
2022/12/28 06:24:04;;;;;;;4.53;1.42;;;7.50;99.90;;;;;;6251116;22;20004;-81
2022/12/28 06:26:32;;;;;;;2.42;1.42;;;7.40;99.90;;;;;;6276435;22;20089;-81
2022/12/28 06:28:58;;;;;;;2.20;1.50;;;7.50;99.90;;;;;;6250481;22;20030;-80
2022/12/28 06:31:33;;;;;;;2.88;1.23;;;7.50;99.90;;;;;;6250535;22;20039;-80
2022/12/28 06:34:00;;;;;;;2.67;1.17;;;7.50;99.90;;;;;;6249743;22;20011;-81
2022/12/28 06:36:28;;;;;;;2.00;1.05;;;7.50;99.90;;;;;;6275707;22;20007;-80
2022/12/28 06:38:57;;;;;;;1.90;0.90;;;7.50;99.90;;;;;;6276333;22;20044;-81
2022/12/28 06:41:24;;;;;;;2.72;1.00;;;7.50;99.90;;;;;;6250955;22;20007;-81
2022/12/28 06:43:49;;;;;;;2.20;1.42;;;7.50;99.90;;;;;;6250413;22;20360;-81
2022/12/28 06:46:17;;;;;;;2.22;0.90;;;7.60;99.90;;;;;;6276118;22;20098;-81
2022/12/28 06:48:43;;;;;;;4.28;1.20;;;7.60;99.90;;;;;;6275337;22;20007;-81
2022/12/28 06:51:11;;;;;;;2.28;0.80;;;7.60;99.90;;;;;;6250615;22;20011;-81
2022/12/28 06:53:37;;;;;;;2.35;1.02;;;7.60;99.90;;;;;;6303471;22;20046;-81
2022/12/28 06:56:15;;;;;;;1.90;1.13;;;7.60;99.90;;;;;;6275967;22;20011;-81
2022/12/28 06:58:41;;;;;;;2.53;1.60;;;7.60;99.90;;;;;;6250772;22;20620;-81
2022/12/28 07:01:09;;;;;;;2.63;1.42;;;7.60;99.90;;;;;;6275439;22;20003;-80
2022/12/28 07:03:35;;;;;;;2.38;1.13;;;7.70;99.90;;;;;;6303342;22;20419;-80
2022/12/28 07:06:03;;;;;;;1.63;0.75;;;7.70;99.90;;;;;;6249773;22;20063;-81
2022/12/28 07:08:29;;;;;;;2.65;0.80;;;7.70;99.90;;;;;;6303783;22;20003;-81
2022/12/28 07:10:54;;;;;;;2.00;1.05;;;7.70;99.90;;;;;;6276041;22;20436;-81
2022/12/28 07:13:20;;;;;;;1.85;0.65;;;7.80;99.90;;;;;;6276618;22;20015;-80
2022/12/28 07:15:46;;;;;;;2.35;0.90;;;7.80;99.90;;;;;;6301160;22;20488;-80
2022/12/28 07:18:12;;;;;;;2.95;0.77;;;7.90;99.90;;;;;;6303358;22;20006;-81
2022/12/28 07:20:37;;;;;;;4.15;0.68;;;7.80;99.90;;;;;;6213411;22;20140;-81
2022/12/28 07:23:03;;;;;;;2.22;0.70;;;7.90;99.90;;;;;;6290587;22;20084;-81
2022/12/28 07:25:29;;;;;;;1.50;0.70;;;7.90;99.90;;;;;;6265872;22;20096;-81
2022/12/28 07:27:55;;;;;;;1.63;0.60;;;7.90;99.90;;;;;;6262811;22;20141;-81
2022/12/28 07:30:21;;;;;;;1.52;0.57;;;7.90;99.90;;;;;;6290268;22;20490;-81
2022/12/28 07:32:46;;;;;;;1.02;0.47;;;7.90;99.90;;;;;;6289844;22;20009;-81
2022/12/28 07:35:12;;;;;;;3.60;0.65;;;7.90;99.90;;;;;;6290731;22;20003;-81
2022/12/28 07:37:38;;;;;;;1.27;0.50;;;8.00;99.90;;;;;;6262543;22;20064;-81
2022/12/28 07:40:04;;;;;;;1.27;0.50;;;7.90;99.90;;;;;;6287524;22;20011;-81
2022/12/28 07:42:30;;;;;;;1.50;0.60;;;8.00;99.90;;;;;;6264076;22;20011;-81
2022/12/28 07:44:56;;;;;;;2.13;0.90;;;7.90;99.90;;;;;;6262894;22;20339;-81
2022/12/28 07:47:21;;;;;;;2.45;0.80;;;8.00;99.90;;;;;;6290866;22;20019;-81
2022/12/28 07:49:47;;;;;;;2.50;0.90;;;8.00;99.90;;;;;;6287071;22;20000;-81
2022/12/28 07:52:13;;;;;;;2.05;1.00;;;8.00;99.90;;;;;;6263389;22;20011;-81
2022/12/28 07:54:38;;;;;;;1.92;0.77;;;8.00;99.90;;;;;;6263611;22;20497;-80
2022/12/28 07:57:04;;;;;;;2.30;0.70;;;8.00;99.90;;;;;;6288848;22;20891;-81
2022/12/28 07:59:30;;;;;;;2.42;0.77;;;8.00;99.90;;;;;;6261187;22;20007;-80
2022/12/28 08:01:55;;;;;;;1.48;0.63;;;8.10;99.90;;;;;;6262857;22;20034;-81
2022/12/28 08:04:21;;;;;;;1.65;0.70;;;8.10;99.90;;;;;;6287076;22;20011;-80
2022/12/28 08:06:47;;;;;;;1.95;1.00;;;8.10;99.90;;;;;;6263065;22;20019;-80
2022/12/28 08:09:14;;;;;;;3.28;0.73;;;8.00;99.90;;;;;;6270083;22;20003;-81
2022/12/28 08:11:44;;;;;;;2.00;0.70;;;8.00;99.90;;;;;;6247630;22;20057;-81
2022/12/28 08:14:11;;;;;;;3.08;1.13;;;8.10;99.90;;;;;;6249394;22;20007;-81
2022/12/28 08:16:39;;;;;;;2.22;0.85;;;8.10;99.90;;;;;;6250125;22;20007;-82
2022/12/28 08:19:06;;;;;;;4.05;1.27;;;8.10;99.90;;;;;;6249328;22;20007;-81
2022/12/28 08:21:34;;;;;;;2.70;1.00;;;8.10;99.90;;;;;;6249879;22;20030;-81
2022/12/28 08:24:00;;;;;;;1.73;0.80;;;8.10;99.90;;;;;;6275846;22;20043;-81
2022/12/28 08:26:38;;;;;;;1.60;0.85;;;8.10;99.90;;;;;;6300663;22;20552;-81
2022/12/28 08:29:07;;;;;;;2.05;0.68;;;8.10;99.90;;;;;;6249475;22;20007;-81
2022/12/28 08:31:36;;;;;;;2.23;0.60;;;8.10;99.90;;;;;;6249340;22;20073;-81
2022/12/28 08:34:06;;;;;;;2.67;1.00;;;8.20;99.90;;;;;;6275024;22;20076;-81
2022/12/28 08:36:32;;;;;;;2.13;0.95;;;8.20;99.90;;;;;;6236252;22;20022;-80
2022/12/28 08:38:59;;;;;;;2.80;0.70;;;8.20;99.90;;;;;;6262988;22;20007;-81
2022/12/28 08:41:27;;;;;;;1.48;0.80;;;8.20;99.90;;;;;;6290863;22;20015;-81
2022/12/28 08:43:54;;;;;;;1.23;0.60;;;8.20;99.90;;;;;;6289795;22;20026;-81
2022/12/28 08:46:22;;;;;;;2.63;0.90;;;8.20;99.90;;;;;;6260910;22;20022;-81
2022/12/28 08:48:49;;;;;;;1.65;0.65;;;8.20;99.90;;;;;;6236476;22;20007;-81
2022/12/28 08:51:18;;;;;;;2.63;0.60;;;8.20;99.90;;;;;;6262648;22;20011;-81
2022/12/28 08:53:44;;;;;;;1.55;0.85;;;8.20;99.90;;;;;;6261496;22;20436;-80
2022/12/28 08:56:13;;;;;;;1.48;0.50;;;8.30;99.90;;;;;;6260444;22;20017;-81
2022/12/28 08:58:40;;;;;;;1.80;0.70;;;8.20;99.90;;;;;;6260868;22;20011;-81
2022/12/28 09:01:07;;;;;;;1.20;0.60;;;8.30;99.90;;;;;;6262154;22;20015;-82
2022/12/28 09:03:38;;;;;;;1.58;0.68;;;8.30;99.90;;;;;;6262213;22;20422;-81
2022/12/28 09:06:06;;;;;;;1.70;0.80;;;8.30;99.90;;;;;;6235301;22;20078;-81
2022/12/28 09:08:31;;;;;;;1.52;0.80;;;8.30;99.90;;;;;;6262118;22;20022;-81
2022/12/28 09:11:04;;;;;;;1.63;0.70;;;8.30;99.90;;;;;;6289155;22;20007;-81
2022/12/28 09:13:32;;;;;;;1.88;0.93;;;8.30;99.90;;;;;;6252566;22;20233;-81
2022/12/28 09:15:59;;;;;;;1.27;0.70;;;8.30;99.90;;;;;;6288178;22;20017;-81
2022/12/28 09:18:25;;;;;;;2.92;0.98;;;8.30;99.90;;;;;;6262690;22;20294;-81
2022/12/28 09:20:51;;;;;;;2.05;0.90;;;8.30;99.90;;;;;;6261979;22;20084;-82
2022/12/28 09:23:17;;;;;;;1.70;0.90;;;8.30;99.90;;;;;;6286216;22;20007;-81
2022/12/28 09:25:42;;;;;;;1.50;0.90;;;8.30;99.90;;;;;;6257620;22;20348;-81
2022/12/28 09:28:08;;;;;;;1.80;0.70;;;8.30;99.90;;;;;;6261129;22;20007;-81
2022/12/28 09:30:34;;;;;;;1.60;0.70;;;8.30;99.90;;;;;;6262294;22;20007;-82
2022/12/28 09:35:44;;;;;;;2.08;1.10;;;8.30;99.90;;;;;;6287140;22;20057;-82
2022/12/28 09:38:09;;;;;;;1.85;1.10;;;8.30;99.90;;;;;;6288584;22;20011;-83
2022/12/28 09:40:36;;;;;;;3.53;1.58;;;8.30;99.90;;;;;;6259132;22;20011;-81
2022/12/28 09:43:08;;;;;;;3.25;0.90;;;8.40;99.90;;;;;;6263061;22;20003;-82
2022/12/28 09:45:34;;;;;;;3.42;1.33;;;8.30;99.90;;;;;;6289515;22;20007;-81
2022/12/28 09:48:07;;;;;;;1.95;1.30;;;8.40;99.90;;;;;;6291072;22;20106;-81
2022/12/28 09:50:34;;;;;;;4.68;1.85;;;8.40;99.90;;;;;;6263479;22;20038;-81
2022/12/28 09:53:21;;;;;;;2.63;1.48;;;8.40;99.90;;;;;;6263213;22;20076;-82
2022/12/28 09:55:56;;;;;;;2.25;1.45;;;8.40;99.90;;;;;;6261291;22;20023;-82
2022/12/28 09:58:22;;;;;;;2.05;1.25;;;8.40;99.90;;;;;;6237981;22;20427;-82
2022/12/28 10:00:51;;;;;;;2.42;1.58;;;8.40;99.90;;;;;;6291301;22;20451;-82
2022/12/28 10:03:25;;;;;;;3.00;1.65;;;8.40;99.90;;;;;;6301484;22;20003;-82
2022/12/28 10:05:54;;;;;;;3.80;1.58;;;8.40;99.90;;;;;;6274304;22;20100;-81
2022/12/28 10:08:21;;;;;;;3.65;1.60;;;8.50;99.90;;;;;;6273696;22;20031;-82
2022/12/28 10:10:49;;;;;;;2.70;1.27;;;8.40;99.90;;;;;;6246932;22;20258;-81
2022/12/28 10:13:28;;;;;;;3.35;1.40;;;8.40;99.90;;;;;;6249332;22;20064;-82
2022/12/28 10:15:54;;;;;;;2.30;1.75;;;8.40;99.90;;;;;;6300263;22;20006;-81
2022/12/28 10:18:26;;;;;;;3.35;1.35;;;8.40;99.90;;;;;;6302158;22;20014;-82
2022/12/28 10:20:52;;;;;;;1.90;1.10;;;8.50;99.90;;;;;;6275044;22;20042;-82
2022/12/28 10:23:31;;;;;;;1.60;0.80;;;8.50;99.90;;;;;;6303000;22;20003;-81
2022/12/28 10:25:58;;;;;;;2.10;0.95;;;8.50;99.90;;;;;;6249181;22;20038;-82
2022/12/28 10:28:29;;;;;;;2.70;1.58;;;8.50;99.90;;;;;;6275400;22;20015;-81
2022/12/28 10:31:07;;;;;;;2.05;1.10;;;8.50;99.90;;;;;;6275621;22;20007;-81
2022/12/28 10:33:38;;;;;;;2.42;1.13;;;8.50;99.90;;;;;;6276282;22;20007;-81
2022/12/28 10:36:04;;;;;;;3.45;1.20;;;8.50;99.90;;;;;;6275942;22;20073;-82
2022/12/28 10:38:32;;;;;;;2.08;1.15;;;8.60;99.90;;;;;;6275574;22;20007;-82
2022/12/28 10:41:08;;;;;;;2.53;1.42;;;8.50;99.90;;;;;;6275683;22;20000;-81
2022/12/28 10:43:38;;;;;;;1.45;0.93;;;8.50;99.90;;;;;;6250310;22;20010;-81
2022/12/28 10:46:12;;;;;;;2.85;1.40;;;8.60;99.90;;;;;;6274934;22;20027;-81
2022/12/28 10:48:38;;;;;;;1.52;0.80;;;8.60;99.90;;;;;;6272625;22;20475;-81
2022/12/28 10:51:17;;;;;;;2.15;1.40;;;8.60;99.90;;;;;;6247342;22;20545;-81
2022/12/28 10:53:47;;;;;;;3.40;1.15;;;8.60;99.90;;;;;;6271437;22;20003;-81
2022/12/28 10:56:12;;;;;;;2.22;1.38;;;8.60;99.90;;;;;;6248409;22;20019;-81
2022/12/28 10:58:43;;;;;;;1.70;0.90;;;8.70;99.90;;;;;;6272959;22;20377;-81
2022/12/28 11:01:12;;;;;;;2.80;1.20;;;8.60;99.90;;;;;;6273062;22;20087;-82
2022/12/28 11:03:41;;;;;;;2.63;1.42;;;8.70;99.90;;;;;;6274060;22;20011;-81
2022/12/28 11:06:16;;;;;;;1.83;1.03;;;8.70;99.90;;;;;;6301366;22;20444;-81
2022/12/28 11:08:44;;;;;;;3.90;1.20;;;8.70;99.90;;;;;;6247736;22;20014;-81
2022/12/28 11:11:21;;;;;;;2.17;1.10;;;8.70;99.90;;;;;;6247747;22;20012;-81
2022/12/28 11:14:02;;;;;;;2.85;0.80;;;8.70;99.90;;;;;;6273105;22;20034;-82
2022/12/28 11:16:33;;;;;;;1.73;0.93;;;8.70;99.90;;;;;;6194082;22;20018;-81
2022/12/28 11:18:59;;;;;;;1.60;0.82;;;8.70;99.90;;;;;;6260382;22;20007;-82
2022/12/28 11:21:25;;;;;;;1.63;0.90;;;8.70;99.90;;;;;;6261559;22;20094;-81
2022/12/28 11:23:52;;;;;;;1.67;0.80;;;8.70;99.90;;;;;;6286145;22;20010;-82
2022/12/28 11:26:18;;;;;;;2.28;0.75;;;8.80;99.90;;;;;;6289402;22;20482;-82
2022/12/28 11:28:47;;;;;;;2.92;0.77;;;8.80;99.90;;;;;;6235016;22;20012;-82
2022/12/28 11:31:38;;;;;;;1.80;0.88;;;8.80;99.90;;;;;;6260736;22;20023;-82
2022/12/28 11:34:11;;;;;;;1.40;0.70;;;8.80;99.90;;;;;;6261223;22;20034;-81
2022/12/28 11:36:39;;;;;;;1.48;0.80;;;8.70;99.90;;;;;;6234612;22;20451;-82
2022/12/28 11:39:23;;;;;;;2.28;0.63;;;8.70;99.90;;;;;;6259123;22;20138;-81
2022/12/28 11:41:51;;;;;;;1.40;0.70;;;8.70;99.90;;;;;;6286300;22;20022;-81
2022/12/28 11:44:47;;;;;;;1.60;0.60;;;8.70;99.90;;;;;;6261014;22;20458;-81
2022/12/28 11:47:15;;;;;;;1.58;0.70;;;8.70;99.90;;;;;;6234644;22;20015;-81
2022/12/28 11:49:43;;;;;;;2.67;0.70;;;8.80;99.90;;;;;;6250826;22;20321;-81
2022/12/28 11:52:32;;;;;;;1.85;0.80;;;8.80;99.90;;;;;;6234302;22;20011;-81
2022/12/28 11:55:20;;;;;;;1.77;0.80;;;8.70;99.90;;;;;;6234928;22;20450;-81
2022/12/28 11:57:46;;;;;;;2.30;0.90;;;8.80;99.90;;;;;;6260437;22;20004;-81
2022/12/28 12:00:18;;;;;;;1.73;0.68;;;8.80;99.90;;;;;;6259457;22;20034;-81
2022/12/28 12:02:55;;;;;;;1.95;0.75;;;8.70;99.90;;;;;;6260908;22;20077;-81
2022/12/28 12:05:36;;;;;;;1.73;0.60;;;8.80;99.90;;;;;;6235065;22;20023;-81
2022/12/28 12:08:11;;;;;;;1.77;0.95;;;8.80;99.90;;;;;;6258891;22;20032;-81
2022/12/28 12:10:40;;;;;;;1.85;0.95;;;8.80;99.90;;;;;;6285094;22;20021;-81
2022/12/28 12:13:24;;;;;;;1.80;0.50;;;8.80;99.90;;;;;;6261297;22;20014;-81
2022/12/28 12:15:57;;;;;;;1.98;1.00;;;8.80;99.90;;;;;;6234576;22;20012;-81
2022/12/28 12:18:26;;;;;;;1.38;0.50;;;8.80;99.90;;;;;;6237434;22;20023;-81
2022/12/28 12:20:58;;;;;;;2.85;0.80;;;8.80;99.90;;;;;;6284764;22;20177;-82
2022/12/28 12:23:47;;;;;;;3.25;1.30;;;8.80;99.90;;;;;;6286000;22;20115;-82
2022/12/28 12:26:41;;;;;;;1.83;0.70;;;8.80;99.90;;;;;;6234415;22;20051;-80
2022/12/28 12:29:45;;;;;;;1.85;0.60;;;8.80;99.90;;;;;;6258895;22;20038;-81
2022/12/28 12:32:24;;;;;;;1.77;0.60;;;8.80;99.90;;;;;;6233726;22;20327;-81
2022/12/28 12:35:04;;;;;;;2.22;0.60;;;8.80;99.90;;;;;;6245420;22;20007;-81
2022/12/28 12:37:57;;;;;;;1.80;0.60;;;8.90;99.90;;;;;;6271207;22;20007;-81
2022/12/28 12:40:46;;;;;;;2.58;0.50;;;8.80;99.90;;;;;;6271466;22;20007;-80
2022/12/28 12:43:30;;;;;;;2.42;0.63;;;8.80;99.90;;;;;;6271468;22;20026;-81
2022/12/28 12:46:17;;;;;;;2.80;0.60;;;8.80;99.90;;;;;;6271905;22;20109;-81
2022/12/28 12:49:00;;;;;;;1.75;0.50;;;8.80;99.90;;;;;;6272786;22;20000;-81
2022/12/28 12:52:11;;;;;;;4.18;0.82;;;8.80;99.90;;;;;;6272637;22;20439;-80
2022/12/28 12:55:02;;;;;;;2.00;0.70;;;8.80;99.90;;;;;;6149783;23;20028;-81
2022/12/28 12:57:49;;;;;;;2.25;0.80;;;8.80;99.90;;;;;;6125548;23;20156;-81
2022/12/28 13:00:17;;;;;;;2.53;0.75;;;8.80;99.90;;;;;;6150123;23;20423;-81
2022/12/28 13:03:07;;;;;;;2.97;0.80;;;8.80;99.90;;;;;;6125300;23;20559;-81
2022/12/28 13:05:36;;;;;;;2.08;0.68;;;8.80;99.90;;;;;;6149807;23;20189;-81
2022/12/28 13:08:03;;;;;;;4.68;1.23;;;8.80;99.90;;;;;;6149211;23;20478;-80
2022/12/28 13:10:33;;;;;;;2.45;0.70;;;8.80;99.90;;;;;;6150437;23;20505;-79
2022/12/28 13:12:59;;;;;;;;;;;8.80;99.90;;;;;;6175851;23;20009;-80
2022/12/28 13:15:26;;;;;;;2.53;0.60;;;8.80;99.90;;;;;;6175008;23;19970;-79
2022/12/28 13:18:21;;;;;;;3.65;0.60;;;8.90;99.90;;;;;;6147629;23;20009;-79
2022/12/28 13:20:57;;;;;;;2.47;0.65;;;8.80;99.90;;;;;;6150041;23;20033;-79
2022/12/28 13:23:24;;;;;;;2.80;0.55;;;8.80;99.90;;;;;;6151070;23;20487;-79
2022/12/28 13:25:53;;;;;;;3.28;0.50;;;8.80;99.90;;;;;;6125462;23;20345;-79
2022/12/28 13:28:22;;;;;;;2.28;0.57;;;8.80;99.90;;;;;;6204431;22;20059;-79
2022/12/28 13:31:05;;;;;;;2.55;0.60;;;8.90;99.90;;;;;;6242596;22;20007;-79
2022/12/28 13:33:30;;;;;;;1.60;0.50;;;8.90;99.90;;;;;;6242975;22;20008;-78
2022/12/28 13:36:12;;;;;;;2.65;0.57;;;8.80;99.90;;;;;;6243754;22;20011;-79
2022/12/28 13:38:38;;;;;;;2.03;0.80;;;8.80;99.90;;;;;;6243132;22;20012;-79
2022/12/28 13:41:15;;;;;;;2.67;0.70;;;8.80;99.90;;;;;;6242906;22;20004;-80
2022/12/28 13:44:08;;;;;;;4.72;0.85;;;8.80;99.90;;;;;;6271149;22;20012;-79
2022/12/28 13:46:37;;;;;;;1.92;0.82;;;8.80;99.90;;;;;;6270701;22;20505;-79
2022/12/28 13:49:03;;;;;;;3.53;0.80;;;8.90;99.90;;;;;;6217542;22;20038;-79